Time;durP1;ratioP1;P1;durP2;ratioP2;P2;SDS_P1;SDS_P2;PMS_P1;PMS_P2;Temp;Humidity;BMP_temperature;BMP_pressure;BME280_temperature;BME280_humidity;BME280_pressure;Samples;Min_cycle;Max_cycle;Signal;HPM_P1;HPM_P2
2021/04/09 00:00:19;;;;;;;;;;;;;;;;;;1479411;40;6991;-62
2021/04/09 00:01:21;;;;;;;;;;;;;;;;;;1479411;40;7044;-61
2021/04/09 00:02:24;;;;;;;;;;;;;;;;;;1479332;40;6991;-61
2021/04/09 00:03:26;;;;;;;;;;;;;;;;;;1479250;40;6984;-61
2021/04/09 00:04:27;;;;;;;;;;;;;;;;;;1479458;40;6999;-62
2021/04/09 00:05:29;;;;;;;;;;;;;;;;;;1483910;40;6991;-62
2021/04/09 00:06:31;;;;;;;;;;;;;;;;;;1483790;40;7112;-62
2021/04/09 00:07:33;;;;;;;;;;;;;;;;;;1483421;40;7148;-62
2021/04/09 00:08:35;;;;;;;;;;;;;;;;;;1481630;40;7041;-62
2021/04/09 00:09:37;;;;;;;;;;;;;;;;;;1483275;40;7845;-62
2021/04/09 00:10:39;;;;;;;;;;;;;;;;;;1483273;40;6991;-61
2021/04/09 00:11:42;;;;;;;;;;;;;;;;;;1481313;40;7003;-61
2021/04/09 00:12:44;;;;;;;;;;;;;;;;;;1479018;40;7926;-62
2021/04/09 00:13:46;;;;;;;;;;;;;;;;;;1478956;40;7112;-62
2021/04/09 00:14:48;;;;;;;;;;;;;;;;;;1479151;40;7108;-61
2021/04/09 00:15:51;;;;;;;;;;;;;;;;;;1479187;40;6991;-62
2021/04/09 00:16:53;;;;;;;;;;;;;;;;;;1479028;40;7959;-62
2021/04/09 00:17:55;;;;;;;;;;;;;;;;;;1478891;40;7030;-62
2021/04/09 00:18:59;;;;;;;;;;;;;;;;;;1479797;40;6991;-61
2021/04/09 00:20:01;;;;;;;;;;;;;;;;;;1483234;40;7904;-62
2021/04/09 00:21:03;;;;;;;;;;;;;;;;;;1482889;40;7121;-61
2021/04/09 00:22:05;;;;;;;;;;;;;;;;;;1478646;40;8849;-61
2021/04/09 00:23:07;;;;;;;;;;;;;;;;;;1478840;40;7023;-61
2021/04/09 00:24:09;;;;;;;;;;;;;;;;;;1479092;40;6999;-61
2021/04/09 00:25:13;;;;;;;;;;;;;;;;;;1479184;40;7624;-61
2021/04/09 00:26:15;;;;;;;;;;;;;;;;;;1479460;40;7125;-61
2021/04/09 00:27:17;;;;;;;;;;;;;;;;;;1479255;40;7011;-61
2021/04/09 00:28:19;;;;;;;;;;;;;;;;;;1483661;40;7084;-62
2021/04/09 00:29:21;;;;;;;;;;;;;;;;;;1483064;40;7947;-61
2021/04/09 00:30:26;;;;;;;;;;;;;;;;;;1483003;40;7212;-61
2021/04/09 00:31:28;;;;;;;;;;;;;;;;;;1483093;40;7047;-61
2021/04/09 00:32:30;;;;;;;;;;;;;;;;;;1483223;40;7938;-61
2021/04/09 00:33:34;;;;;;;;;;;;;;;;;;1487099;40;8767;-61
2021/04/09 00:34:36;;;;;;;;;;;;;;;;;;1486616;40;6999;-62
2021/04/09 00:35:39;;;;;;;;;;;;;;;;;;1483596;40;7931;-62
2021/04/09 00:36:41;;;;;;;;;;;;;;;;;;1483253;40;7153;-62
2021/04/09 00:37:43;;;;;;;;;;;;;;;;;;1483433;40;7912;-62
2021/04/09 00:38:45;;;;;;;;;;;;;;;;;;1483016;40;7282;-62
2021/04/09 00:39:54;;;;;;;;;;;;;;;;;;1483474;40;7027;-61
2021/04/09 00:40:56;;;;;;;;;;;;;;;;;;1483318;40;7007;-61
2021/04/09 00:41:58;;;;;;;;;;;;;;;;;;1483282;40;7116;-61
2021/04/09 00:43:00;;;;;;;;;;;;;;;;;;1483486;40;6996;-61
2021/04/09 00:44:03;;;;;;;;;;;;;;;;;;1483513;40;6999;-61
2021/04/09 00:45:06;;;;;;;;;;;;;;;;;;1483416;40;7075;-62
2021/04/09 00:46:08;;;;;;;;;;;;;;;;;;1483356;40;7927;-61
2021/04/09 00:47:11;;;;;;;;;;;;;;;;;;1483716;40;7092;-61
2021/04/09 00:48:13;;;;;;;;;;;;;;;;;;1483534;40;7027;-61
2021/04/09 00:49:15;;;;;;;;;;;;;;;;;;1482915;40;7007;-61
2021/04/09 00:50:17;;;;;;;;;;;;;;;;;;1483486;40;7003;-61
2021/04/09 00:51:21;;;;;;;;;;;;;;;;;;1483563;40;7020;-61
2021/04/09 00:52:28;;;;;;;;;;;;;;;;;;1483374;40;7031;-61
2021/04/09 00:53:30;;;;;;;;;;;;;;;;;;1483551;40;7934;-61
2021/04/09 00:54:33;;;;;;;;;;;;;;;;;;1483625;40;7004;-61
2021/04/09 00:55:37;;;;;;;;;;;;;;;;;;1483583;40;7000;-61
2021/04/09 00:56:40;;;;;;;;;;;;;;;;;;1483740;40;7121;-61
2021/04/09 00:57:42;;;;;;;;;;;;;;;;;;1478783;40;7966;-61
2021/04/09 00:58:45;;;;;;;;;;;;;;;;;;1479473;40;6987;-61
2021/04/09 00:59:47;;;;;;;;;;;;;;;;;;1479137;40;6999;-61
2021/04/09 01:00:49;;;;;;;;;;;;;;;;;;1479178;40;7898;-61
2021/04/09 01:01:51;;;;;;;;;;;;;;;;;;1479164;40;7144;-62
2021/04/09 01:02:53;;;;;;;;;;;;;;;;;;1479192;40;6992;-61
2021/04/09 01:03:55;;;;;;;;;;;;;;;;;;1479206;40;7031;-61
2021/04/09 01:04:59;;;;;;;;;;;;;;;;;;1479206;40;6995;-62
2021/04/09 01:06:01;;;;;;;;;;;;;;;;;;1479319;40;6988;-62
2021/04/09 01:07:04;;;;;;;;;;;;;;;;;;1479261;40;7035;-61
2021/04/09 01:08:06;;;;;;;;;;;;;;;;;;1480824;40;7914;-61
2021/04/09 01:09:12;;;;;;;;;;;;;;;;;;1479457;40;7239;-61
2021/04/09 01:10:17;;;;;;;;;;;;;;;;;;1479406;40;7945;-61
2021/04/09 01:11:19;;;;;;;;;;;;;;;;;;1479071;40;7847;-61
2021/04/09 01:12:21;;;;;;;;;;;;;;;;;;1479158;40;7044;-61
2021/04/09 01:13:23;;;;;;;;;;;;;;;;;;1482382;40;7925;-61
2021/04/09 01:14:25;;;;;;;;;;;;;;;;;;1479866;40;7014;-61
2021/04/09 01:15:27;;;;;;;;;;;;;;;;;;1478343;40;7891;-61
2021/04/09 01:16:41;;;;;;;;;;;;;;;;;;1479145;40;7354;-61
2021/04/09 01:17:52;;;;;;;;;;;;;;;;;;1483185;40;7159;-61
2021/04/09 01:19:17;;;;;;;;;;;;;;;;;;1481696;40;7954;-61
2021/04/09 01:20:41;;;;;;;;;;;;;;;;;;1478945;40;7295;-61
2021/04/09 01:22:03;;;;;;;;;;;;;;;;;;1480542;40;7035;-61
2021/04/09 01:23:14;;;;;;;;;;;;;;;;;;1481678;40;6996;-61
2021/04/09 01:24:34;;;;;;;;;;;;;;;;;;1483053;40;7039;-61
2021/04/09 01:25:55;;;;;;;;;;;;;;;;;;1482719;40;7007;-62
2021/04/09 01:27:18;;;;;;;;;;;;;;;;;;1483324;40;7942;-62
2021/04/09 01:28:35;;;;;;;;;;;;;;;;;;1480814;40;7925;-61
2021/04/09 01:29:37;;;;;;;;;;;;;;;;;;1483033;40;7190;-61
2021/04/09 01:30:55;;;;;;;;;;;;;;;;;;1482519;40;7915;-62
2021/04/09 01:32:06;;;;;;;;;;;;;;;;;;1482478;40;7027;-61
2021/04/09 01:33:09;;;;;;;;;;;;;;;;;;1483224;40;7031;-61
2021/04/09 01:34:12;;;;;;;;;;;;;;;;;;1483139;40;7231;-61
2021/04/09 01:35:16;;;;;;;;;;;;;;;;;;1483324;40;7904;-61
2021/04/09 01:36:19;;;;;;;;;;;;;;;;;;1482978;40;7135;-61
2021/04/09 01:37:24;;;;;;;;;;;;;;;;;;1483186;40;7031;-61
2021/04/09 01:38:31;;;;;;;;;;;;;;;;;;1482813;40;7093;-61
2021/04/09 01:39:40;;;;;;;;;;;;;;;;;;1483379;40;7023;-61
2021/04/09 01:40:45;;;;;;;;;;;;;;;;;;1482968;40;7175;-61
2021/04/09 01:41:49;;;;;;;;;;;;;;;;;;1483095;40;7007;-61
2021/04/09 01:42:58;;;;;;;;;;;;;;;;;;1482027;40;8175;-61
2021/04/09 01:44:03;;;;;;;;;;;;;;;;;;1479243;40;7150;-61
2021/04/09 01:45:08;;;;;;;;;;;;;;;;;;1479022;40;7894;-61
2021/04/09 01:46:12;;;;;;;;;;;;;;;;;;1479095;40;7027;-61
2021/04/09 01:47:15;;;;;;;;;;;;;;;;;;1479116;40;7990;-61
2021/04/09 01:48:19;;;;;;;;;;;;;;;;;;1479521;40;6996;-61
2021/04/09 01:49:23;;;;;;;;;;;;;;;;;;1479228;40;7027;-61
2021/04/09 01:50:27;;;;;;;;;;;;;;;;;;1479239;40;7000;-61
2021/04/09 01:51:29;;;;;;;;;;;;;;;;;;1479400;40;6992;-61
2021/04/09 01:52:34;;;;;;;;;;;;;;;;;;1481768;40;7008;-61
2021/04/09 01:53:38;;;;;;;;;;;;;;;;;;1483393;40;7094;-62
2021/04/09 01:54:44;;;;;;;;;;;;;;;;;;1483292;40;6991;-62
2021/04/09 01:55:49;;;;;;;;;;;;;;;;;;1483191;40;7113;-61
2021/04/09 01:56:52;;;;;;;;;;;;;;;;;;1483281;40;7196;-61
2021/04/09 01:57:56;;;;;;;;;;;;;;;;;;1483249;40;7003;-61
2021/04/09 01:58:59;;;;;;;;;;;;;;;;;;1482939;40;7939;-61
2021/04/09 02:00:01;;;;;;;;;;;;;;;;;;1482864;40;8165;-62
2021/04/09 02:01:07;;;;;;;;;;;;;;;;;;1483002;40;6999;-61
2021/04/09 02:02:10;;;;;;;;;;;;;;;;;;1482982;40;7206;-61
2021/04/09 02:03:13;;;;;;;;;;;;;;;;;;1483079;40;7031;-61
2021/04/09 02:04:20;;;;;;;;;;;;;;;;;;1483059;40;7007;-61
2021/04/09 02:05:24;;;;;;;;;;;;;;;;;;1482254;40;7115;-61
2021/04/09 02:06:26;;;;;;;;;;;;;;;;;;1482673;40;6991;-61
2021/04/09 02:07:31;;;;;;;;;;;;;;;;;;1478787;40;7916;-61
2021/04/09 02:08:35;;;;;;;;;;;;;;;;;;1480576;40;6999;-62
2021/04/09 02:09:38;;;;;;;;;;;;;;;;;;1483328;40;7012;-62
2021/04/09 02:10:40;;;;;;;;;;;;;;;;;;1483687;40;7030;-62
2021/04/09 02:11:43;;;;;;;;;;;;;;;;;;1481487;40;7031;-61
2021/04/09 02:12:45;;;;;;;;;;;;;;;;;;1482348;40;7517;-61
2021/04/09 02:13:49;;;;;;;;;;;;;;;;;;1482631;40;7929;-61
2021/04/09 02:14:56;;;;;;;;;;;;;;;;;;1479101;40;7175;-61
2021/04/09 02:15:59;;;;;;;;;;;;;;;;;;1478433;40;7004;-61
2021/04/09 02:17:01;;;;;;;;;;;;;;;;;;1479039;40;6991;-61
2021/04/09 02:18:04;;;;;;;;;;;;;;;;;;1478895;40;7000;-61
2021/04/09 02:19:07;;;;;;;;;;;;;;;;;;1479602;40;7203;-61
2021/04/09 02:20:11;;;;;;;;;;;;;;;;;;1483024;40;7000;-61
2021/04/09 02:21:13;;;;;;;;;;;;;;;;;;1482171;40;6999;-61
2021/04/09 02:22:16;;;;;;;;;;;;;;;;;;1478557;40;7040;-61
2021/04/09 02:23:19;;;;;;;;;;;;;;;;;;1478838;40;7112;-61
2021/04/09 02:24:21;;;;;;;;;;;;;;;;;;1478655;40;7845;-62
2021/04/09 02:25:23;;;;;;;;;;;;;;;;;;1478665;40;6991;-61
2021/04/09 02:26:26;;;;;;;;;;;;;;;;;;1478469;40;7007;-61
2021/04/09 02:27:28;;;;;;;;;;;;;;;;;;1478736;40;7027;-61
2021/04/09 02:28:30;;;;;;;;;;;;;;;;;;1478963;40;7192;-61
2021/04/09 02:29:33;;;;;;;;;;;;;;;;;;1479377;40;7008;-61
2021/04/09 02:30:36;;;;;;;;;;;;;;;;;;1478456;40;7027;-61
2021/04/09 02:31:39;;;;;;;;;;;;;;;;;;1478495;40;7920;-61
2021/04/09 02:32:41;;;;;;;;;;;;;;;;;;1479346;40;7067;-62
2021/04/09 02:33:43;;;;;;;;;;;;;;;;;;1479281;40;7934;-61
2021/04/09 02:34:45;;;;;;;;;;;;;;;;;;1478996;40;7519;-61
2021/04/09 02:35:47;;;;;;;;;;;;;;;;;;1478871;40;7027;-61
2021/04/09 02:36:49;;;;;;;;;;;;;;;;;;1478909;40;7015;-62
2021/04/09 02:37:52;;;;;;;;;;;;;;;;;;1478971;40;7986;-61
2021/04/09 02:38:57;;;;;;;;;;;;;;;;;;1478852;40;7113;-61
2021/04/09 02:40:04;;;;;;;;;;;;;;;;;;1478843;40;6996;-61
2021/04/09 02:41:07;;;;;;;;;;;;;;;;;;1479117;40;6999;-61
2021/04/09 02:42:09;;;;;;;;;;;;;;;;;;1479021;40;7112;-61
2021/04/09 02:43:11;;;;;;;;;;;;;;;;;;1478711;40;7068;-61
2021/04/09 02:44:13;;;;;;;;;;;;;;;;;;1478722;40;7003;-61
2021/04/09 02:45:17;;;;;;;;;;;;;;;;;;1479036;40;7035;-61
2021/04/09 02:46:33;;;;;;;;;;;;;;;;;;1479230;40;7035;-61
2021/04/09 02:47:38;;;;;;;;;;;;;;;;;;1478868;40;7008;-61
2021/04/09 02:48:50;;;;;;;;;;;;;;;;;;1478980;40;8898;-61
2021/04/09 02:50:11;;;;;;;;;;;;;;;;;;1479106;39;7112;-61
2021/04/09 02:51:14;;;;;;;;;;;;;;;;;;1478781;40;7918;-61
2021/04/09 02:52:18;;;;;;;;;;;;;;;;;;1478726;40;7879;-62
2021/04/09 02:53:25;;;;;;;;;;;;;;;;;;1478632;40;7099;-61
2021/04/09 02:54:29;;;;;;;;;;;;;;;;;;1478747;40;7933;-61
2021/04/09 02:55:33;;;;;;;;;;;;;;;;;;1478627;40;7119;-61
2021/04/09 02:56:38;;;;;;;;;;;;;;;;;;1479096;40;7252;-61
2021/04/09 02:57:42;;;;;;;;;;;;;;;;;;1479274;40;7019;-61
2021/04/09 02:58:46;;;;;;;;;;;;;;;;;;1479145;40;7003;-61
2021/04/09 02:59:49;;;;;;;;;;;;;;;;;;1479089;40;7008;-62
2021/04/09 03:00:53;;;;;;;;;;;;;;;;;;1474392;40;7318;-61
2021/04/09 03:01:56;;;;;;;;;;;;;;;;;;1474684;40;7007;-61
2021/04/09 03:02:59;;;;;;;;;;;;;;;;;;1479341;40;7948;-61
2021/04/09 03:04:02;;;;;;;;;;;;;;;;;;1478724;40;6995;-61
2021/04/09 03:05:06;;;;;;;;;;;;;;;;;;1478829;40;7107;-61
2021/04/09 03:06:08;;;;;;;;;;;;;;;;;;1478805;40;6999;-61
2021/04/09 03:07:10;;;;;;;;;;;;;;;;;;1478874;40;7184;-61
2021/04/09 03:08:13;;;;;;;;;;;;;;;;;;1477500;40;8058;-61
2021/04/09 03:09:15;;;;;;;;;;;;;;;;;;1478454;40;9255;-61
2021/04/09 03:10:18;;;;;;;;;;;;;;;;;;1478797;40;7036;-61
2021/04/09 03:11:23;;;;;;;;;;;;;;;;;;1478404;40;7210;-61
2021/04/09 03:12:25;;;;;;;;;;;;;;;;;;1478854;40;7015;-61
2021/04/09 03:13:27;;;;;;;;;;;;;;;;;;1477829;40;7012;-61
2021/04/09 03:14:29;;;;;;;;;;;;;;;;;;1479058;40;6999;-61
2021/04/09 03:15:38;;;;;;;;;;;;;;;;;;1478517;40;6991;-61
2021/04/09 03:16:44;;;;;;;;;;;;;;;;;;1478893;40;6992;-61
2021/04/09 03:17:55;;;;;;;;;;;;;;;;;;1479077;40;7000;-61
2021/04/09 03:18:58;;;;;;;;;;;;;;;;;;1478324;40;7000;-61
2021/04/09 03:20:00;;;;;;;;;;;;;;;;;;1479212;40;6995;-61
2021/04/09 03:21:01;;;;;;;;;;;;;;;;;;1479233;40;7000;-61
2021/04/09 03:22:07;;;;;;;;;;;;;;;;;;1478032;40;6991;-61
2021/04/09 03:23:09;;;;;;;;;;;;;;;;;;1478782;40;7023;-61
2021/04/09 03:24:11;;;;;;;;;;;;;;;;;;1479034;40;6991;-61
2021/04/09 03:25:13;;;;;;;;;;;;;;;;;;1478904;40;7008;-60
2021/04/09 03:26:15;;;;;;;;;;;;;;;;;;1478871;40;8874;-61
2021/04/09 03:27:17;;;;;;;;;;;;;;;;;;1479115;40;7031;-60
2021/04/09 03:28:19;;;;;;;;;;;;;;;;;;1479335;40;6988;-61
2021/04/09 03:29:21;;;;;;;;;;;;;;;;;;1479429;40;7001;-61
2021/04/09 03:30:24;;;;;;;;;;;;;;;;;;1479311;40;7008;-61
2021/04/09 03:31:26;;;;;;;;;;;;;;;;;;1478635;40;9753;-61
2021/04/09 03:32:28;;;;;;;;;;;;;;;;;;1479036;40;7004;-61
2021/04/09 03:33:30;;;;;;;;;;;;;;;;;;1479163;40;7031;-61
2021/04/09 03:34:32;;;;;;;;;;;;;;;;;;1479375;40;6991;-61
2021/04/09 03:35:34;;;;;;;;;;;;;;;;;;1479383;40;7916;-61
2021/04/09 03:36:36;;;;;;;;;;;;;;;;;;1479865;40;6999;-61
2021/04/09 03:37:38;;;;;;;;;;;;;;;;;;1478533;40;7008;-61
2021/04/09 03:38:40;;;;;;;;;;;;;;;;;;1479533;40;7140;-62
2021/04/09 03:39:42;;;;;;;;;;;;;;;;;;1479113;40;7019;-61
2021/04/09 03:40:45;;;;;;;;;;;;;;;;;;1479435;40;6999;-61
2021/04/09 03:41:47;;;;;;;;;;;;;;;;;;1479266;40;6991;-61
2021/04/09 03:42:48;;;;;;;;;;;;;;;;;;1479195;40;9234;-61
2021/04/09 03:43:50;;;;;;;;;;;;;;;;;;1479446;40;7904;-61
2021/04/09 03:44:53;;;;;;;;;;;;;;;;;;1478497;40;7031;-61
2021/04/09 03:45:55;;;;;;;;;;;;;;;;;;1479434;40;7044;-61
2021/04/09 03:46:58;;;;;;;;;;;;;;;;;;1479267;40;6987;-61
2021/04/09 03:48:00;;;;;;;;;;;;;;;;;;1479342;40;8277;-61
2021/04/09 03:49:02;;;;;;;;;;;;;;;;;;1479208;40;7992;-61
2021/04/09 03:50:07;;;;;;;;;;;;;;;;;;1479265;40;7915;-61
2021/04/09 03:51:09;;;;;;;;;;;;;;;;;;1479362;40;7952;-61
2021/04/09 03:52:11;;;;;;;;;;;;;;;;;;1479451;40;7073;-61
2021/04/09 03:53:13;;;;;;;;;;;;;;;;;;1479436;40;7914;-62
2021/04/09 03:54:15;;;;;;;;;;;;;;;;;;1479331;40;7043;-61
2021/04/09 03:55:17;;;;;;;;;;;;;;;;;;1479680;40;7952;-61
2021/04/09 03:56:24;;;;;;;;;;;;;;;;;;1479408;40;7035;-62
2021/04/09 03:57:26;;;;;;;;;;;;;;;;;;1479431;40;6992;-61
2021/04/09 03:58:28;;;;;;;;;;;;;;;;;;1479687;40;7004;-61
2021/04/09 03:59:30;;;;;;;;;;;;;;;;;;1479503;40;6999;-62
2021/04/09 04:00:32;;;;;;;;;;;;;;;;;;1479303;40;7131;-61
2021/04/09 04:01:34;;;;;;;;;;;;;;;;;;1479249;40;8007;-61
2021/04/09 04:02:37;;;;;;;;;;;;;;;;;;1479017;40;6992;-62
2021/04/09 04:03:39;;;;;;;;;;;;;;;;;;1479451;40;7027;-61
2021/04/09 04:04:41;;;;;;;;;;;;;;;;;;1479194;40;7008;-61
2021/04/09 04:05:43;;;;;;;;;;;;;;;;;;1479472;40;7001;-61
2021/04/09 04:06:44;;;;;;;;;;;;;;;;;;1479869;40;6992;-61
2021/04/09 04:07:46;;;;;;;;;;;;;;;;;;1478351;40;7000;-61
2021/04/09 04:08:49;;;;;;;;;;;;;;;;;;1478481;40;7000;-61
2021/04/09 04:09:51;;;;;;;;;;;;;;;;;;1479405;40;7952;-61
2021/04/09 04:10:53;;;;;;;;;;;;;;;;;;1479392;40;8630;-61
2021/04/09 04:11:55;;;;;;;;;;;;;;;;;;1478840;40;7908;-61
2021/04/09 04:12:58;;;;;;;;;;;;;;;;;;1479061;40;6992;-61
2021/04/09 04:13:59;;;;;;;;;;;;;;;;;;1479388;40;7534;-61
2021/04/09 04:15:02;;;;;;;;;;;;;;;;;;1479119;40;6999;-61
2021/04/09 04:16:04;;;;;;;;;;;;;;;;;;1479070;40;7901;-61
2021/04/09 04:17:06;;;;;;;;;;;;;;;;;;1478999;40;6991;-61
2021/04/09 04:18:08;;;;;;;;;;;;;;;;;;1479028;40;7031;-61
2021/04/09 04:19:10;;;;;;;;;;;;;;;;;;1478011;40;7115;-61
2021/04/09 04:20:12;;;;;;;;;;;;;;;;;;1479266;40;7113;-60
2021/04/09 04:21:14;;;;;;;;;;;;;;;;;;1479500;40;7004;-61
2021/04/09 04:22:16;;;;;;;;;;;;;;;;;;1478345;40;7001;-61
2021/04/09 04:23:18;;;;;;;;;;;;;;;;;;1478438;40;7119;-61
2021/04/09 04:24:20;;;;;;;;;;;;;;;;;;1478888;40;7111;-61
2021/04/09 04:25:22;;;;;;;;;;;;;;;;;;1478818;40;7001;-62
2021/04/09 04:26:24;;;;;;;;;;;;;;;;;;1478845;40;7923;-61
2021/04/09 04:27:26;;;;;;;;;;;;;;;;;;1478862;40;7207;-61
2021/04/09 04:28:28;;;;;;;;;;;;;;;;;;1478975;40;7071;-61
2021/04/09 04:29:30;;;;;;;;;;;;;;;;;;1479380;40;7012;-61
2021/04/09 04:30:32;;;;;;;;;;;;;;;;;;1478184;40;8773;-61
2021/04/09 04:31:34;;;;;;;;;;;;;;;;;;1478405;40;7844;-61
2021/04/09 04:32:37;;;;;;;;;;;;;;;;;;1479219;40;7910;-61
2021/04/09 04:33:39;;;;;;;;;;;;;;;;;;1479324;40;7114;-62
2021/04/09 04:34:40;;;;;;;;;;;;;;;;;;1479570;40;7208;-61
2021/04/09 04:35:42;;;;;;;;;;;;;;;;;;1479400;40;7027;-61
2021/04/09 04:36:44;;;;;;;;;;;;;;;;;;1479557;40;7008;-61
2021/04/09 04:37:46;;;;;;;;;;;;;;;;;;1479250;40;6991;-61
2021/04/09 04:38:48;;;;;;;;;;;;;;;;;;1479333;40;6992;-61
2021/04/09 04:39:51;;;;;;;;;;;;;;;;;;1479069;40;7402;-61
2021/04/09 04:40:54;;;;;;;;;;;;;;;;;;1479455;40;7101;-61
2021/04/09 04:41:56;;;;;;;;;;;;;;;;;;1479062;40;7959;-61
2021/04/09 04:42:58;;;;;;;;;;;;;;;;;;1479246;40;7023;-61
2021/04/09 04:44:00;;;;;;;;;;;;;;;;;;1479184;40;7000;-61
2021/04/09 04:45:02;;;;;;;;;;;;;;;;;;1479606;40;8350;-61
2021/04/09 04:46:04;;;;;;;;;;;;;;;;;;1479288;40;7007;-61
2021/04/09 04:47:06;;;;;;;;;;;;;;;;;;1478215;40;7876;-61
2021/04/09 04:48:08;;;;;;;;;;;;;;;;;;1479142;40;8885;-61
2021/04/09 04:49:10;;;;;;;;;;;;;;;;;;1479351;40;7035;-62
2021/04/09 04:50:12;;;;;;;;;;;;;;;;;;1479124;40;7979;-61
2021/04/09 04:51:14;;;;;;;;;;;;;;;;;;1479400;40;7023;-61
2021/04/09 04:52:16;;;;;;;;;;;;;;;;;;1476339;40;7903;-61
2021/04/09 04:53:18;;;;;;;;;;;;;;;;;;1482988;40;7031;-61
2021/04/09 04:54:20;;;;;;;;;;;;;;;;;;1479527;40;8762;-61
2021/04/09 04:55:35;;;;;;;;;;;;;;;;;;1479699;40;7114;-61
2021/04/09 04:56:37;;;;;;;;;;;;;;;;;;1478815;40;7926;-61
2021/04/09 04:57:39;;;;;;;;;;;;;;;;;;1479545;40;7027;-61
2021/04/09 04:58:41;;;;;;;;;;;;;;;;;;1479171;40;7919;-61
2021/04/09 04:59:43;;;;;;;;;;;;;;;;;;1479336;40;7000;-61
2021/04/09 05:00:45;;;;;;;;;;;;;;;;;;1479312;40;7211;-61
2021/04/09 05:01:47;;;;;;;;;;;;;;;;;;1479600;40;7004;-61
2021/04/09 05:02:49;;;;;;;;;;;;;;;;;;1479267;40;7031;-61
2021/04/09 05:03:51;;;;;;;;;;;;;;;;;;1479391;40;7008;-62
2021/04/09 05:04:53;;;;;;;;;;;;;;;;;;1479359;40;6991;-61
2021/04/09 05:05:55;;;;;;;;;;;;;;;;;;1479599;40;7048;-61
2021/04/09 05:06:58;;;;;;;;;;;;;;;;;;1479360;40;7116;-61
2021/04/09 05:08:00;;;;;;;;;;;;;;;;;;1479297;40;7040;-61
2021/04/09 05:09:03;;;;;;;;;;;;;;;;;;1483095;40;6999;-61
2021/04/09 05:10:06;;;;;;;;;;;;;;;;;;1483437;40;7174;-61
2021/04/09 05:11:08;;;;;;;;;;;;;;;;;;1483579;40;7124;-61
2021/04/09 05:12:10;;;;;;;;;;;;;;;;;;1479461;40;7162;-61
2021/04/09 05:13:12;;;;;;;;;;;;;;;;;;1479185;40;7323;-61
2021/04/09 05:14:14;;;;;;;;;;;;;;;;;;1479014;40;7027;-61
2021/04/09 05:15:16;;;;;;;;;;;;;;;;;;1478794;40;7034;-61
2021/04/09 05:16:18;;;;;;;;;;;;;;;;;;1479108;40;7008;-61
2021/04/09 05:17:20;;;;;;;;;;;;;;;;;;1479158;40;8042;-61
2021/04/09 05:18:22;;;;;;;;;;;;;;;;;;1478972;40;7888;-61
2021/04/09 05:19:24;;;;;;;;;;;;;;;;;;1478716;40;7008;-61
2021/04/09 05:20:26;;;;;;;;;;;;;;;;;;1479544;40;7055;-61
2021/04/09 05:21:28;;;;;;;;;;;;;;;;;;1480892;40;6992;-61
2021/04/09 05:22:30;;;;;;;;;;;;;;;;;;1482764;40;7887;-61
2021/04/09 05:23:32;;;;;;;;;;;;;;;;;;1478827;40;7036;-61
2021/04/09 05:24:34;;;;;;;;;;;;;;;;;;1478915;40;7934;-61
2021/04/09 05:25:37;;;;;;;;;;;;;;;;;;1478643;40;6999;-61
2021/04/09 05:26:39;;;;;;;;;;;;;;;;;;1480461;40;7016;-61
2021/04/09 05:27:41;;;;;;;;;;;;;;;;;;1483106;40;7118;-61
2021/04/09 05:28:43;;;;;;;;;;;;;;;;;;1483487;40;7056;-62
2021/04/09 05:29:44;;;;;;;;;;;;;;;;;;1483292;40;7008;-61
2021/04/09 05:30:46;;;;;;;;;;;;;;;;;;1478653;40;7118;-61
2021/04/09 05:31:48;;;;;;;;;;;;;;;;;;1478239;40;7055;-61
2021/04/09 05:32:52;;;;;;;;;;;;;;;;;;1479324;40;7023;-61
2021/04/09 05:33:54;;;;;;;;;;;;;;;;;;1479260;40;7039;-61
2021/04/09 05:34:56;;;;;;;;;;;;;;;;;;1479394;40;7108;-61
2021/04/09 05:35:58;;;;;;;;;;;;;;;;;;1479232;40;6999;-61
2021/04/09 05:37:00;;;;;;;;;;;;;;;;;;1483467;40;7154;-61
2021/04/09 05:38:02;;;;;;;;;;;;;;;;;;1483160;40;7042;-61
2021/04/09 05:39:04;;;;;;;;;;;;;;;;;;1483350;40;7101;-61
2021/04/09 05:40:06;;;;;;;;;;;;;;;;;;1483464;40;7104;-61
2021/04/09 05:41:08;;;;;;;;;;;;;;;;;;1483571;40;7896;-61
2021/04/09 05:42:10;;;;;;;;;;;;;;;;;;1483421;40;6992;-61
2021/04/09 05:43:12;;;;;;;;;;;;;;;;;;1483633;40;6991;-61
2021/04/09 05:44:13;;;;;;;;;;;;;;;;;;1483495;40;6992;-61
2021/04/09 05:45:16;;;;;;;;;;;;;;;;;;1483607;40;6999;-61
2021/04/09 05:46:26;;;;;;;;;;;;;;;;;;1483316;40;6999;-61
2021/04/09 05:47:28;;;;;;;;;;;;;;;;;;1483693;40;6999;-61
2021/04/09 05:48:30;;;;;;;;;;;;;;;;;;1487165;40;7044;-61
2021/04/09 05:49:32;;;;;;;;;;;;;;;;;;1482484;40;6999;-61
2021/04/09 05:50:35;;;;;;;;;;;;;;;;;;1479805;40;7027;-61
2021/04/09 05:51:37;;;;;;;;;;;;;;;;;;1479568;40;7913;-62
2021/04/09 05:52:39;;;;;;;;;;;;;;;;;;1478792;40;7004;-61
2021/04/09 05:53:42;;;;;;;;;;;;;;;;;;1478925;40;6992;-61
2021/04/09 05:54:44;;;;;;;;;;;;;;;;;;1479031;40;7012;-61
2021/04/09 05:55:46;;;;;;;;;;;;;;;;;;1479031;40;6999;-61
2021/04/09 05:56:49;;;;;;;;;;;;;;;;;;1479134;40;7041;-61
2021/04/09 05:57:51;;;;;;;;;;;;;;;;;;1478565;40;6999;-61
2021/04/09 05:58:53;;;;;;;;;;;;;;;;;;1478683;40;7000;-61
2021/04/09 05:59:55;;;;;;;;;;;;;;;;;;1479411;40;7020;-61
2021/04/09 06:00:57;;;;;;;;;;;;;;;;;;1478511;40;7117;-61
2021/04/09 06:02:00;;;;;;;;;;;;;;;;;;1479005;40;7023;-61
2021/04/09 06:03:02;;;;;;;;;;;;;;;;;;1479007;40;7011;-61
2021/04/09 06:04:04;;;;;;;;;;;;;;;;;;1479073;40;7953;-61
2021/04/09 06:05:06;;;;;;;;;;;;;;;;;;1474653;40;7108;-61
2021/04/09 06:06:08;;;;;;;;;;;;;;;;;;1474686;40;7040;-62
2021/04/09 06:07:10;;;;;;;;;;;;;;;;;;1479285;40;7210;-61
2021/04/09 06:08:12;;;;;;;;;;;;;;;;;;1478364;40;6999;-61
2021/04/09 06:09:14;;;;;;;;;;;;;;;;;;1478436;40;7950;-61
2021/04/09 06:10:16;;;;;;;;;;;;;;;;;;1479281;40;6992;-61
2021/04/09 06:11:18;;;;;;;;;;;;;;;;;;1478514;40;6999;-61
2021/04/09 06:12:21;;;;;;;;;;;;;;;;;;1479220;40;6999;-61
2021/04/09 06:13:23;;;;;;;;;;;;;;;;;;1478587;40;7072;-61
2021/04/09 06:14:26;;;;;;;;;;;;;;;;;;1478948;40;7107;-61
2021/04/09 06:15:28;;;;;;;;;;;;;;;;;;1477879;40;7031;-61
2021/04/09 06:16:30;;;;;;;;;;;;;;;;;;1478801;40;7944;-61
2021/04/09 06:17:32;;;;;;;;;;;;;;;;;;1478863;40;7019;-61
2021/04/09 06:18:34;;;;;;;;;;;;;;;;;;1478776;40;8606;-60
2021/04/09 06:19:36;;;;;;;;;;;;;;;;;;1478283;40;7092;-61
2021/04/09 06:20:38;;;;;;;;;;;;;;;;;;1478563;40;7130;-61
2021/04/09 06:21:40;;;;;;;;;;;;;;;;;;1478621;40;7044;-60
2021/04/09 06:22:42;;;;;;;;;;;;;;;;;;1478765;40;7003;-61
2021/04/09 06:23:44;;;;;;;;;;;;;;;;;;1474259;40;7282;-61
2021/04/09 06:24:46;;;;;;;;;;;;;;;;;;1469074;40;7901;-61
2021/04/09 06:25:48;;;;;;;;;;;;;;;;;;1474101;40;7470;-61
2021/04/09 06:26:51;;;;;;;;;;;;;;;;;;1478502;40;7031;-61
2021/04/09 06:27:53;;;;;;;;;;;;;;;;;;1478699;40;6991;-61
2021/04/09 06:28:56;;;;;;;;;;;;;;;;;;1478984;40;7196;-61
2021/04/09 06:29:58;;;;;;;;;;;;;;;;;;1478447;40;7015;-61
2021/04/09 06:31:00;;;;;;;;;;;;;;;;;;1478265;40;7971;-61
2021/04/09 06:32:12;;;;;;;;;;;;;;;;;;1478860;40;7127;-61
2021/04/09 06:33:14;;;;;;;;;;;;;;;;;;1478867;40;7031;-61
2021/04/09 06:34:16;;;;;;;;;;;;;;;;;;1478793;40;7003;-61
2021/04/09 06:35:18;;;;;;;;;;;;;;;;;;1478991;40;7008;-61
2021/04/09 06:36:20;;;;;;;;;;;;;;;;;;1479091;40;7134;-61
2021/04/09 06:37:21;;;;;;;;;;;;;;;;;;1478951;40;7896;-61
2021/04/09 06:38:23;;;;;;;;;;;;;;;;;;1479314;40;7038;-61
2021/04/09 06:39:25;;;;;;;;;;;;;;;;;;1477639;40;7923;-61
2021/04/09 06:40:27;;;;;;;;;;;;;;;;;;1478945;40;6988;-61
2021/04/09 06:41:29;;;;;;;;;;;;;;;;;;1478936;40;7000;-61
2021/04/09 06:42:31;;;;;;;;;;;;;;;;;;1478742;40;7008;-61
2021/04/09 06:43:33;;;;;;;;;;;;;;;;;;1478972;40;6999;-61
2021/04/09 06:44:36;;;;;;;;;;;;;;;;;;1478776;40;7228;-61
2021/04/09 06:45:39;;;;;;;;;;;;;;;;;;1479156;40;7191;-61
2021/04/09 06:46:41;;;;;;;;;;;;;;;;;;1479505;40;7007;-61
2021/04/09 06:47:43;;;;;;;;;;;;;;;;;;1479846;40;7020;-61
2021/04/09 06:48:45;;;;;;;;;;;;;;;;;;1479571;40;7905;-62
2021/04/09 06:49:47;;;;;;;;;;;;;;;;;;1479531;40;7003;-61
2021/04/09 06:50:49;;;;;;;;;;;;;;;;;;1479503;40;7008;-61
2021/04/09 06:51:51;;;;;;;;;;;;;;;;;;1475183;40;6996;-61
2021/04/09 06:52:56;;;;;;;;;;;;;;;;;;1478421;40;6992;-61
2021/04/09 06:54:01;;;;;;;;;;;;;;;;;;1479701;40;8006;-61
2021/04/09 06:55:03;;;;;;;;;;;;;;;;;;1479499;40;6999;-61
2021/04/09 06:56:06;;;;;;;;;;;;;;;;;;1479706;40;7939;-61
2021/04/09 06:57:12;;;;;;;;;;;;;;;;;;1479439;40;7008;-61
2021/04/09 06:58:18;;;;;;;;;;;;;;;;;;1479563;40;7117;-61
2021/04/09 06:59:24;;;;;;;;;;;;;;;;;;1479601;40;6999;-61
2021/04/09 07:00:30;;;;;;;;;;;;;;;;;;1479822;40;8014;-61
2021/04/09 07:01:35;;;;;;;;;;;;;;;;;;1479564;40;7896;-60
2021/04/09 07:02:41;;;;;;;;;;;;;;;;;;1479609;40;6991;-62
2021/04/09 07:03:43;;;;;;;;;;;;;;;;;;1479707;40;7118;-61
2021/04/09 07:04:46;;;;;;;;;;;;;;;;;;1479633;40;7036;-61
2021/04/09 07:05:49;;;;;;;;;;;;;;;;;;1479583;40;7031;-61
2021/04/09 07:06:52;;;;;;;;;;;;;;;;;;1479689;40;6984;-61
2021/04/09 07:07:54;;;;;;;;;;;;;;;;;;1479756;40;6992;-62
2021/04/09 07:08:56;;;;;;;;;;;;;;;;;;1482833;40;7109;-61
2021/04/09 07:09:58;;;;;;;;;;;;;;;;;;1483463;40;7000;-61
2021/04/09 07:11:00;;;;;;;;;;;;;;;;;;1484205;40;7972;-61
2021/04/09 07:12:03;;;;;;;;;;;;;;;;;;1481007;40;7509;-62
2021/04/09 07:13:07;;;;;;;;;;;;;;;;;;1479196;40;6999;-61
2021/04/09 07:14:09;;;;;;;;;;;;;;;;;;1479409;40;7003;-62
2021/04/09 07:15:19;;;;;;;;;;;;;;;;;;1478895;40;7019;-62
2021/04/09 07:16:21;;;;;;;;;;;;;;;;;;1483168;40;6999;-61
2021/04/09 07:17:31;;;;;;;;;;;;;;;;;;1483343;40;7000;-61
2021/04/09 07:18:48;;;;;;;;;;;;;;;;;;1483429;40;7000;-61
2021/04/09 07:19:51;;;;;;;;;;;;;;;;;;1478929;40;7131;-61